Time;durP1;ratioP1;P1;durP2;ratioP2;P2;SDS_P1;SDS_P2;PMS_P1;PMS_P2;Temp;Humidity;BMP_temperature;BMP_pressure;BME280_temperature;BME280_humidity;BME280_pressure;Samples;Min_cycle;Max_cycle;Signal;HPM_P1;HPM_P2
2021/12/16 00:08:43;;;;;;;49.53;36.13;;;14.20;99.90;;;;;;5121991;28;20682;-29
2021/12/16 00:33:46;;;;;;;45.67;33.43;;;14.30;99.80;;;;;;5166467;28;20491;-32
2021/12/16 00:36:17;;;;;;;51.97;37.87;;;14.30;99.80;;;;;;5165711;28;20595;-32
2021/12/16 00:38:48;;;;;;;48.13;34.97;;;14.30;99.80;;;;;;5153433;28;20530;-32
2021/12/16 00:41:19;;;;;;;47.97;34.10;;;14.30;99.80;;;;;;5170614;28;20047;-32
2021/12/16 00:43:57;;;;;;;45.70;32.60;;;14.30;99.70;;;;;;5169494;28;20049;-30
2021/12/16 00:54:58;;;;;;;45.73;33.87;;;14.30;99.70;;;;;;5170543;28;20392;-31
2021/12/16 00:57:29;;;;;;;81.40;52.37;;;14.30;99.70;;;;;;5170698;28;20046;-30
2021/12/16 01:00:04;;;;;;;65.77;47.60;;;14.30;99.80;;;;;;5169153;28;20073;-31
2021/12/16 01:02:56;;;;;;;50.83;35.00;;;14.30;99.80;;;;;;5170259;28;20480;-30
2021/12/16 01:33:54;;;;;;;28.03;24.03;;;14.20;99.80;;;;;;5169397;28;20077;-30
2021/12/16 01:50:09;;;;;;;29.20;24.57;;;14.20;99.80;;;;;;5127666;29;20138;-31
2021/12/16 01:55:33;;;;;;;33.30;27.15;;;14.20;99.50;;;;;;5112733;29;20465;-29
2021/12/16 01:58:28;;;;;;;28.53;24.03;;;14.10;99.30;;;;;;5097303;29;20492;-30
2021/12/16 02:03:46;;;;;;;30.13;24.77;;;14.10;99.10;;;;;;5126864;29;20043;-32
2021/12/16 02:09:27;;;;;;;28.77;25.57;;;14.20;99.00;;;;;;5126893;29;20044;-30
2021/12/16 02:12:09;;;;;;;30.43;24.70;;;14.10;98.90;;;;;;5126740;29;20170;-30
2021/12/16 02:36:55;;;;;;;31.10;25.80;;;14.20;99.00;;;;;;5169270;28;20104;-30
2021/12/16 02:39:28;;;;;;;32.07;26.17;;;14.10;99.10;;;;;;5167117;28;20050;-30
2021/12/16 02:42:11;;;;;;;;;;;14.10;99.10;;;;;;5167568;28;20058;-32
2021/12/16 02:50:43;;;;;;;28.10;23.47;;;14.20;99.10;;;;;;5168398;28;20049;-31
2021/12/16 02:53:14;;;;;;;28.03;24.93;;;14.20;99.10;;;;;;5168091;28;20096;-30
2021/12/16 02:55:46;;;;;;;33.00;26.67;;;14.20;99.20;;;;;;5168504;28;20073;-30
2021/12/16 02:58:17;;;;;;;31.00;25.57;;;14.20;99.50;;;;;;5167924;28;20093;-32
2021/12/16 03:00:53;;;;;;;27.90;24.17;;;14.10;99.20;;;;;;5167533;28;20042;-31
2021/12/16 03:03:24;;;;;;;43.57;38.17;;;14.20;99.20;;;;;;5168023;28;20476;-30
2021/12/16 03:05:55;;;;;;;49.67;43.57;;;14.10;99.20;;;;;;5167987;28;20050;-29
2021/12/16 03:08:28;;;;;;;41.70;29.47;;;14.20;99.20;;;;;;5167813;28;20451;-30
2021/12/16 03:11:09;;;;;;;46.08;33.90;;;14.20;99.20;;;;;;5168101;28;20504;-30
2021/12/16 03:16:28;;;;;;;35.70;27.43;;;14.10;99.20;;;;;;5167035;28;20050;-29
2021/12/16 03:19:12;;;;;;;35.90;27.27;;;14.20;99.30;;;;;;5166371;28;20084;-31
2021/12/16 03:21:49;;;;;;;35.47;27.50;;;14.20;99.20;;;;;;5166762;28;20065;-30
2021/12/16 03:27:34;;;;;;;31.93;25.53;;;14.20;99.30;;;;;;5167718;28;20431;-30
2021/12/16 03:33:09;;;;;;;35.10;26.63;;;14.10;99.30;;;;;;5167543;28;20400;-30
2021/12/16 03:35:50;;;;;;;31.53;24.23;;;14.10;99.40;;;;;;5167595;28;20046;-30
2021/12/16 03:38:21;;;;;;;30.37;24.30;;;14.10;99.40;;;;;;5167584;28;20046;-30
2021/12/16 03:40:53;;;;;;;26.53;23.50;;;14.10;99.40;;;;;;5166041;28;20046;-30
2021/12/16 03:43:24;;;;;;;27.07;23.57;;;14.10;99.40;;;;;;5166232;28;20061;-33
2021/12/16 03:48:48;;;;;;;29.90;23.23;;;14.10;99.40;;;;;;5166187;28;20121;-32
2021/12/16 03:51:29;;;;;;;28.00;23.03;;;14.10;99.40;;;;;;5166277;28;20054;-31
2021/12/16 03:54:24;;;;;;;29.27;23.93;;;14.10;99.40;;;;;;5167176;28;20081;-31
2021/12/16 03:56:56;;;;;;;28.13;22.60;;;14.10;99.40;;;;;;5125018;29;20056;-31
2021/12/16 03:59:29;;;;;;;27.83;22.57;;;14.10;99.40;;;;;;5108766;29;20065;-30
2021/12/16 04:02:07;;;;;;;28.00;23.03;;;14.20;99.40;;;;;;5124700;29;20485;-31
2021/12/16 04:04:39;;;;;;;28.53;23.80;;;14.20;99.40;;;;;;5124563;29;20134;-30
2021/12/16 04:07:10;;;;;;;29.77;22.63;;;14.20;99.30;;;;;;5124596;28;20126;-31
2021/12/16 04:09:41;;;;;;;31.93;24.27;;;14.20;99.40;;;;;;5124708;29;20121;-30
2021/12/16 04:12:15;;;;;;;31.17;24.97;;;14.20;99.40;;;;;;5107865;29;20063;-30
2021/12/16 04:14:47;;;;;;;32.73;24.00;;;14.20;99.50;;;;;;5124366;29;20059;-31
2021/12/16 04:17:22;;;;;;;30.67;23.92;;;14.10;99.50;;;;;;5124493;28;20054;-31
2021/12/16 04:19:53;;;;;;;28.93;23.93;;;14.10;99.60;;;;;;5124587;29;20078;-30
2021/12/16 04:22:33;;;;;;;29.37;24.37;;;14.10;99.70;;;;;;5124475;29;20126;-30
2021/12/16 04:25:09;;;;;;;32.93;25.37;;;14.10;99.80;;;;;;5124662;29;20074;-31
2021/12/16 04:27:40;;;;;;;28.77;23.60;;;14.10;99.80;;;;;;5124328;29;20051;-31
2021/12/16 04:30:12;;;;;;;31.43;24.33;;;14.10;99.80;;;;;;5124472;29;20053;-30
2021/12/16 04:32:43;;;;;;;30.40;24.93;;;14.20;99.90;;;;;;5124716;28;20513;-30
2021/12/16 04:35:14;;;;;;;26.73;23.03;;;14.20;99.80;;;;;;5167094;28;20038;-31
2021/12/16 04:37:46;;;;;;;31.50;23.13;;;14.20;99.80;;;;;;5166448;28;20061;-32
2021/12/16 04:40:18;;;;;;;30.47;24.67;;;14.20;99.90;;;;;;5166620;28;20057;-30
2021/12/16 04:42:49;;;;;;;27.80;23.10;;;14.20;99.90;;;;;;5165106;28;20057;-29
2021/12/16 04:45:20;;;;;;;26.20;22.07;;;14.20;99.90;;;;;;5165354;28;20399;-31
2021/12/16 04:47:51;;;;;;;31.07;23.93;;;14.20;99.90;;;;;;5181605;28;20101;-32
2021/12/16 04:50:22;;;;;;;28.97;23.07;;;14.20;99.90;;;;;;5164698;28;20094;-31
2021/12/16 04:52:55;;;;;;;28.27;23.15;;;14.20;99.90;;;;;;5164850;28;20137;-33
2021/12/16 04:55:26;;;;;;;29.83;23.53;;;14.20;99.90;;;;;;5164209;28;20137;-33
2021/12/16 04:57:57;;;;;;;32.37;26.00;;;14.20;99.90;;;;;;5147921;28;20057;-33
2021/12/16 05:00:28;;;;;;;33.07;25.77;;;14.20;99.90;;;;;;5164422;28;20058;-30
2021/12/16 05:02:59;;;;;;;31.23;24.63;;;14.20;99.90;;;;;;5148062;28;20046;-32
2021/12/16 05:05:30;;;;;;;31.23;23.73;;;14.20;99.90;;;;;;5147872;28;20050;-30
2021/12/16 05:08:01;;;;;;;28.50;23.23;;;14.20;99.90;;;;;;5164007;28;20050;-30
2021/12/16 05:10:32;;;;;;;29.93;24.27;;;14.20;99.90;;;;;;5164059;28;20570;-31
2021/12/16 05:13:05;;;;;;;31.13;24.43;;;14.20;99.90;;;;;;5164346;28;20150;-30
2021/12/16 05:15:38;;;;;;;30.00;23.00;;;14.20;99.90;;;;;;5164072;28;20538;-32
2021/12/16 05:18:11;;;;;;;28.10;22.40;;;14.20;99.90;;;;;;5163800;28;20070;-30
2021/12/16 05:20:44;;;;;;;25.83;21.77;;;14.20;99.90;;;;;;5164567;28;20074;-30
2021/12/16 05:28:45;;;;;;;26.00;22.07;;;14.20;99.90;;;;;;5169933;28;20043;-30
2021/12/16 05:31:16;;;;;;;28.33;22.40;;;14.20;99.90;;;;;;5169171;28;20137;-31
2021/12/16 05:33:48;;;;;;;27.83;22.23;;;14.20;99.90;;;;;;5169450;28;20057;-31
2021/12/16 05:36:19;;;;;;;28.27;22.17;;;14.20;99.90;;;;;;5169822;28;20124;-30
2021/12/16 05:38:50;;;;;;;28.93;23.07;;;14.20;99.90;;;;;;5168426;28;20078;-30
2021/12/16 05:41:21;;;;;;;27.77;24.73;;;14.20;99.90;;;;;;5169353;28;20070;-30
2021/12/16 05:43:53;;;;;;;25.93;23.13;;;14.20;99.90;;;;;;5169575;28;20491;-30
2021/12/16 05:46:24;;;;;;;25.80;21.97;;;13.80;99.90;;;;;;5169551;28;20391;-34
2021/12/16 05:48:55;;;;;;;26.33;23.20;;;12.60;99.90;;;;;;5169824;28;20046;-33
2021/12/16 05:51:28;;;;;;;25.70;21.57;;;12.00;99.90;;;;;;5177459;28;20075;-35
2021/12/16 05:54:00;;;;;;;28.42;23.23;;;11.70;99.90;;;;;;5183769;28;20115;-31
2021/12/16 05:56:31;;;;;;;27.23;22.97;;;11.70;99.90;;;;;;5185196;28;20053;-34
2021/12/16 05:59:04;;;;;;;32.20;25.33;;;11.60;99.90;;;;;;5186554;28;20045;-32
2021/12/16 06:01:37;;;;;;;32.77;26.70;;;11.60;99.90;;;;;;5185309;28;20399;-32
2021/12/16 06:04:27;;;;;;;26.97;21.07;;;11.60;99.90;;;;;;5186724;28;20107;-31
2021/12/16 06:06:58;;;;;;;28.97;22.70;;;11.60;99.90;;;;;;5186295;28;20554;-31
2021/12/16 06:09:29;;;;;;;33.80;24.23;;;11.60;99.90;;;;;;5186845;28;20054;-31
2021/12/16 06:12:01;;;;;;;35.93;25.37;;;11.50;99.90;;;;;;5169684;28;20048;-31
2021/12/16 06:28:24;;;;;;;27.97;23.63;;;11.80;99.90;;;;;;5178964;28;20113;-31
2021/12/16 06:30:55;;;;;;;28.40;21.83;;;11.70;99.90;;;;;;5184838;28;20133;-32
2021/12/16 06:33:26;;;;;;;35.03;29.73;;;11.70;99.90;;;;;;5185940;28;20042;-32
2021/12/16 06:35:57;;;;;;;39.77;30.63;;;11.70;99.90;;;;;;5185059;28;20555;-32
2021/12/16 06:38:28;;;;;;;47.13;37.20;;;11.70;99.90;;;;;;5184962;28;20499;-32
2021/12/16 06:40:59;;;;;;;28.43;23.10;;;11.70;99.90;;;;;;5182905;28;20073;-32
2021/12/16 06:43:31;;;;;;;34.60;26.80;;;11.60;99.90;;;;;;5181808;28;20054;-32
2021/12/16 06:46:06;;;;;;;39.65;27.90;;;11.60;99.90;;;;;;5185123;28;20050;-32
2021/12/16 06:48:40;;;;;;;29.17;22.90;;;11.60;99.90;;;;;;5185501;28;20765;-32
2021/12/16 06:54:10;;;;;;;33.50;26.73;;;11.50;99.90;;;;;;5139352;28;20065;-32
2021/12/16 06:56:56;;;;;;;28.83;23.17;;;11.50;99.90;;;;;;5142917;28;20093;-31
2021/12/16 06:59:34;;;;;;;40.53;26.10;;;11.50;99.90;;;;;;5142780;28;20066;-31
2021/12/16 07:02:15;;;;;;;29.90;20.90;;;11.50;99.90;;;;;;5127658;28;20070;-32
2021/12/16 07:04:47;;;;;;;31.83;23.13;;;11.50;99.90;;;;;;5127719;28;20089;-31
2021/12/16 07:07:17;;;;;;;26.73;18.47;;;11.50;99.90;;;;;;5143073;28;20046;-31
2021/12/16 07:09:54;;;;;;;55.10;31.30;;;11.50;99.90;;;;;;5142505;28;20602;-32
2021/12/16 07:12:35;;;;;;;27.17;18.17;;;11.50;99.90;;;;;;5126939;28;20214;-31
2021/12/16 07:15:19;;;;;;;29.23;19.93;;;11.50;99.90;;;;;;5142831;28;20131;-31
2021/12/16 07:17:50;;;;;;;28.63;18.73;;;11.60;99.90;;;;;;5143388;28;20062;-32
2021/12/16 07:20:24;;;;;;;33.97;20.20;;;11.60;99.90;;;;;;5145292;28;20448;-31
2021/12/16 07:22:56;;;;;;;22.53;16.87;;;11.80;99.90;;;;;;5145428;28;20133;-32
2021/12/16 07:25:28;;;;;;;30.37;17.70;;;12.20;99.90;;;;;;5145483;28;20507;-31
2021/12/16 07:27:58;;;;;;;25.13;16.00;;;12.50;99.90;;;;;;5129297;28;20134;-31
2021/12/16 07:30:30;;;;;;;17.73;13.63;;;12.80;99.90;;;;;;5143245;28;20054;-32
2021/12/16 07:33:01;;;;;;;34.03;18.70;;;13.00;99.90;;;;;;5188345;28;20053;-32
2021/12/16 07:35:32;;;;;;;23.37;15.23;;;13.30;99.90;;;;;;5187761;28;20761;-32
2021/12/16 07:38:04;;;;;;;13.10;10.57;;;13.40;99.90;;;;;;5187676;28;20038;-32
2021/12/16 07:40:35;;;;;;;21.93;15.70;;;13.60;99.90;;;;;;5187476;28;20046;-32
2021/12/16 07:45:42;;;;;;;15.40;10.77;;;13.80;99.90;;;;;;5187428;28;20041;-32
2021/12/16 07:48:14;;;;;;;13.93;9.67;;;13.90;99.90;;;;;;5187817;28;20148;-34
2021/12/16 07:50:47;;;;;;;12.07;8.83;;;14.00;99.90;;;;;;5187334;28;20054;-34
2021/12/16 07:53:18;;;;;;;12.13;9.73;;;14.00;99.90;;;;;;5169846;28;20053;-29
2021/12/16 07:55:49;;;;;;;12.83;10.23;;;14.10;99.90;;;;;;5186560;28;20042;-29
2021/12/16 07:58:23;;;;;;;11.63;10.13;;;14.20;99.90;;;;;;5187116;28;20038;-30
2021/12/16 08:00:55;;;;;;;14.03;11.47;;;14.30;99.90;;;;;;5187296;28;20050;-31
2021/12/16 08:03:27;;;;;;;10.50;8.73;;;14.30;99.90;;;;;;5186080;28;20042;-30
2021/12/16 08:06:05;;;;;;;10.10;8.03;;;14.30;99.90;;;;;;5185592;28;20128;-29
2021/12/16 08:08:36;;;;;;;11.73;8.43;;;14.30;99.90;;;;;;5187015;28;20499;-33
2021/12/16 08:11:07;;;;;;;12.07;8.77;;;14.30;99.90;;;;;;5169534;28;20121;-31
2021/12/16 08:13:38;;;;;;;12.93;9.07;;;14.30;99.90;;;;;;5185840;28;20384;-31
2021/12/16 08:16:09;;;;;;;12.47;8.43;;;14.30;99.90;;;;;;5186789;28;20088;-30
2021/12/16 08:18:43;;;;;;;7.37;6.07;;;14.30;99.90;;;;;;5185166;28;20042;-31
2021/12/16 08:21:32;;;;;;;8.47;6.40;;;14.30;99.90;;;;;;5150475;28;20086;-30
2021/12/16 08:24:06;;;;;;;9.07;7.03;;;14.30;99.90;;;;;;5164210;28;20536;-30
2021/12/16 08:26:37;;;;;;;11.10;8.73;;;14.30;99.90;;;;;;5148676;28;20057;-30
2021/12/16 08:29:11;;;;;;;11.40;8.80;;;14.30;99.90;;;;;;5148270;28;20495;-33
2021/12/16 08:31:45;;;;;;;8.83;7.30;;;14.30;99.90;;;;;;5164331;28;20062;-32
2021/12/16 08:34:17;;;;;;;11.27;10.17;;;14.30;99.90;;;;;;5164319;28;20626;-31
2021/12/16 08:36:48;;;;;;;9.73;8.20;;;14.30;99.90;;;;;;5148381;28;20070;-33
2021/12/16 08:39:23;;;;;;;;;;;14.30;99.90;;;;;;5148837;28;20574;-34
2021/12/16 08:41:55;;;;;;;10.27;7.27;;;14.30;99.90;;;;;;5146221;28;19932;-31
2021/12/16 08:44:27;;;;;;;9.73;6.65;;;14.30;99.90;;;;;;5163061;28;20050;-33
2021/12/16 08:47:01;;;;;;;7.00;6.30;;;14.40;99.90;;;;;;5163916;28;20421;-31
2021/12/16 08:49:32;;;;;;;8.93;7.20;;;14.30;99.90;;;;;;5147961;28;20665;-30
2021/12/16 08:52:15;;;;;;;8.80;7.53;;;14.40;99.90;;;;;;5174041;28;20058;-33
2021/12/16 08:54:46;;;;;;;8.75;7.72;;;14.40;99.90;;;;;;5185459;28;20038;-31
2021/12/16 08:57:17;;;;;;;8.23;6.90;;;14.40;99.90;;;;;;5186861;28;20042;-33
2021/12/16 08:59:49;;;;;;;11.20;7.17;;;14.40;99.90;;;;;;5188776;28;20050;-32
2021/12/16 09:02:22;;;;;;;7.83;6.50;;;14.40;99.90;;;;;;5189501;28;20046;-31
2021/12/16 09:04:53;;;;;;;7.97;7.10;;;14.40;99.90;;;;;;5190407;28;20120;-34
2021/12/16 09:07:24;;;;;;;6.70;5.77;;;14.40;99.90;;;;;;5190622;28;20061;-31
2021/12/16 09:09:57;;;;;;;7.70;6.63;;;14.40;99.90;;;;;;5189029;28;20045;-31
2021/12/16 09:15:08;;;;;;;6.63;5.60;;;14.30;99.90;;;;;;5189215;28;20041;-31
2021/12/16 09:17:39;;;;;;;8.20;7.37;;;14.40;99.90;;;;;;5190168;28;20046;-31
2021/12/16 09:20:10;;;;;;;7.13;6.43;;;14.30;99.90;;;;;;5189979;28;20453;-30
2021/12/16 09:22:41;;;;;;;6.80;6.10;;;14.30;99.90;;;;;;5189977;28;20120;-30
2021/12/16 09:25:13;;;;;;;7.93;6.47;;;14.30;99.90;;;;;;5190183;28;20111;-32
2021/12/16 09:27:44;;;;;;;8.60;7.33;;;14.30;99.90;;;;;;5190183;28;20053;-31
2021/12/16 09:30:17;;;;;;;6.97;6.27;;;14.30;99.90;;;;;;5188706;28;20042;-31
2021/12/16 09:32:51;;;;;;;10.20;7.30;;;14.30;99.90;;;;;;5188659;28;20483;-31
2021/12/16 09:35:22;;;;;;;6.87;5.97;;;14.30;99.90;;;;;;5172317;28;20135;-30
2021/12/16 09:37:54;;;;;;;7.90;6.30;;;14.20;99.90;;;;;;5189605;28;20487;-31
2021/12/16 09:40:27;;;;;;;8.23;6.40;;;14.30;99.90;;;;;;5189730;28;20065;-30
2021/12/16 09:42:58;;;;;;;13.27;10.30;;;14.30;99.90;;;;;;5189502;28;20137;-31
2021/12/16 09:45:29;;;;;;;6.80;5.90;;;14.30;99.90;;;;;;5189543;28;20038;-33
2021/12/16 09:48:00;;;;;;;8.03;5.50;;;14.30;99.90;;;;;;5189333;28;20438;-33
2021/12/16 09:50:33;;;;;;;;;;;14.40;99.90;;;;;;5189904;28;20045;-30
2021/12/16 09:53:04;;;;;;;16.73;12.90;;;14.30;99.90;;;;;;5189377;28;19928;-31
2021/12/16 09:55:38;;;;;;;15.37;10.07;;;14.40;99.90;;;;;;5189367;28;20054;-31
2021/12/16 09:58:15;;;;;;;10.90;7.93;;;14.40;99.90;;;;;;5188319;28;20515;-31
2021/12/16 10:00:46;;;;;;;6.30;4.80;;;14.40;99.90;;;;;;5188286;28;20042;-31
2021/12/16 10:03:17;;;;;;;4.77;3.63;;;14.50;99.90;;;;;;5188592;28;20037;-31
2021/12/16 10:05:48;;;;;;;6.10;3.97;;;14.40;99.90;;;;;;5188338;28;20054;-32
2021/12/16 10:08:19;;;;;;;6.23;4.33;;;14.40;99.90;;;;;;5187625;28;20049;-32
2021/12/16 10:10:50;;;;;;;10.07;6.80;;;14.40;99.90;;;;;;5188012;28;20045;-33
2021/12/16 10:13:31;;;;;;;4.63;3.50;;;14.40;99.90;;;;;;5188803;28;20057;-31
2021/12/16 10:18:37;;;;;;;7.03;4.33;;;14.40;99.90;;;;;;5187815;28;20044;-31
2021/12/16 10:21:45;;;;;;;5.50;3.20;;;14.40;99.90;;;;;;5187456;28;20060;-33
2021/12/16 10:24:34;;;;;;;8.20;5.80;;;14.40;99.90;;;;;;5188744;28;20096;-32
2021/12/16 10:27:08;;;;;;;10.10;5.63;;;14.40;99.90;;;;;;5188729;28;20065;-32
2021/12/16 10:29:42;;;;;;;6.77;5.00;;;14.40;99.90;;;;;;5188656;28;20407;-34
2021/12/16 10:32:36;;;;;;;20.57;13.73;;;14.40;99.90;;;;;;5188615;28;20061;-30
2021/12/16 10:35:11;;;;;;;;;;;14.40;99.90;;;;;;5187945;28;20454;-31
2021/12/16 10:37:50;;;;;;;8.93;6.23;;;14.40;99.90;;;;;;5188602;28;19925;-31
2021/12/16 10:40:25;;;;;;;5.77;4.37;;;14.30;99.90;;;;;;5166549;28;20062;-34
2021/12/16 10:42:57;;;;;;;15.57;9.23;;;14.40;99.90;;;;;;5165647;28;20069;-31
2021/12/16 10:45:46;;;;;;;6.83;5.73;;;14.40;99.90;;;;;;5150016;28;20066;-33
2021/12/16 10:48:22;;;;;;;62.07;40.67;;;14.40;99.90;;;;;;5149621;28;20703;-34
2021/12/16 10:51:12;;;;;;;25.83;17.87;;;14.40;99.90;;;;;;5165823;28;20058;-32
2021/12/16 10:54:06;;;;;;;5.80;3.80;;;14.40;99.90;;;;;;5166179;28;20050;-32
2021/12/16 10:56:53;;;;;;;13.90;9.97;;;14.40;99.90;;;;;;5149365;28;20046;-32
2021/12/16 11:00:18;;;;;;;4.20;2.50;;;14.30;99.90;;;;;;5165932;28;20125;-32
2021/12/16 11:02:49;;;;;;;6.53;3.87;;;14.30;99.90;;;;;;5065331;29;20503;-34
2021/12/16 11:05:22;;;;;;;6.70;4.00;;;14.30;99.90;;;;;;5065313;29;20048;-31
2021/12/16 11:07:55;;;;;;;5.40;2.90;;;14.20;99.90;;;;;;5065441;29;20052;-31
2021/12/16 11:10:30;;;;;;;9.77;5.45;;;14.20;99.90;;;;;;5072359;29;20573;-32
2021/12/16 11:13:07;;;;;;;9.07;4.13;;;14.20;99.90;;;;;;5104347;29;20066;-31
2021/12/16 11:15:53;;;;;;;5.87;3.23;;;14.20;99.90;;;;;;5089511;29;20044;-31
2021/12/16 11:18:25;;;;;;;4.10;2.03;;;14.20;99.90;;;;;;5075862;29;20557;-34
2021/12/16 11:21:05;;;;;;;6.47;3.20;;;14.10;99.90;;;;;;5089612;29;20131;-34
2021/12/16 11:23:38;;;;;;;11.03;4.77;;;14.00;99.90;;;;;;5105290;29;20055;-30
2021/12/16 11:26:13;;;;;;;;;;;14.00;99.90;;;;;;5105982;29;20566;-34
2021/12/16 11:28:49;;;;;;;7.00;3.70;;;14.00;99.90;;;;;;5105262;29;19922;-31
2021/12/16 11:31:25;;;;;;;13.83;6.97;;;14.00;99.70;;;;;;5105160;29;20134;-32
2021/12/16 11:34:23;;;;;;;10.77;6.40;;;14.00;99.50;;;;;;5088821;29;20044;-31
2021/12/16 11:36:58;;;;;;;15.10;7.50;;;14.00;99.30;;;;;;5082794;28;20062;-33
2021/12/16 11:39:39;;;;;;;14.53;6.73;;;14.00;99.30;;;;;;5186941;28;20049;-31
2021/12/16 11:42:13;;;;;;;;;;;14.00;99.30;;;;;;5186222;28;20054;-30
2021/12/16 11:44:44;;;;;;;22.73;9.23;;;14.00;99.30;;;;;;5186319;28;19928;-31
2021/12/16 11:47:23;;;;;;;10.73;5.27;;;14.10;99.50;;;;;;5187471;28;20041;-30
2021/12/16 11:49:59;;;;;;;8.27;4.80;;;13.60;99.60;;;;;;5187036;28;20062;-31
2021/12/16 11:52:35;;;;;;;9.07;4.83;;;12.80;99.90;;;;;;5170258;28;20125;-32
2021/12/16 11:55:17;;;;;;;7.70;5.60;;;12.40;99.90;;;;;;5185984;28;20050;-30
2021/12/16 11:57:52;;;;;;;7.77;3.80;;;12.30;99.90;;;;;;5187142;28;20046;-31
2021/12/16 12:00:26;;;;;;;9.23;4.60;;;12.10;99.90;;;;;;5169775;28;20502;-30
2021/12/16 12:03:07;;;;;;;8.47;4.20;;;12.10;99.90;;;;;;5186929;28;20038;-32
2021/12/16 12:05:45;;;;;;;7.20;3.90;;;12.10;99.90;;;;;;5185836;28;20070;-32
2021/12/16 12:08:21;;;;;;;7.80;4.57;;;12.00;99.90;;;;;;5187026;28;20045;-30
2021/12/16 12:11:06;;;;;;;6.33;4.20;;;12.00;99.90;;;;;;5186014;28;20508;-32
2021/12/16 12:13:42;;;;;;;11.20;6.77;;;11.90;99.90;;;;;;5186653;28;20125;-32
2021/12/16 12:16:14;;;;;;;9.77;6.20;;;12.00;99.90;;;;;;5186957;28;20491;-30
2021/12/16 12:18:51;;;;;;;16.63;9.27;;;12.40;99.90;;;;;;5185574;28;20076;-33
2021/12/16 12:21:32;;;;;;;14.87;8.80;;;12.80;99.80;;;;;;5186796;28;20045;-31
2021/12/16 12:24:16;;;;;;;15.17;9.03;;;13.00;99.30;;;;;;5186332;28;20053;-33
2021/12/16 12:26:53;;;;;;;15.27;9.47;;;13.20;99.10;;;;;;5202848;28;20050;-30
2021/12/16 12:29:29;;;;;;;13.60;7.93;;;13.30;98.80;;;;;;5190020;28;20120;-34
2021/12/16 12:32:08;;;;;;;19.97;11.43;;;13.40;98.40;;;;;;5188891;28;20052;-31
2021/12/16 12:34:42;;;;;;;13.73;8.17;;;13.50;98.30;;;;;;5206958;28;20048;-34
2021/12/16 12:37:16;;;;;;;11.05;8.73;;;13.60;98.30;;;;;;5207241;28;20550;-33
2021/12/16 12:39:50;;;;;;;8.57;4.80;;;13.70;98.00;;;;;;5189730;28;20499;-32
2021/12/16 12:42:21;;;;;;;9.03;4.90;;;13.80;98.00;;;;;;5156666;28;20110;-32
2021/12/16 12:44:54;;;;;;;8.43;4.53;;;13.80;97.80;;;;;;5189617;28;20403;-31
2021/12/16 12:47:29;;;;;;;7.53;4.20;;;13.80;97.70;;;;;;5206948;28;20049;-31
2021/12/16 12:50:26;;;;;;;8.07;4.07;;;13.90;97.80;;;;;;5207006;28;20048;-31
2021/12/16 12:53:00;;;;;;;7.87;3.97;;;13.90;97.50;;;;;;5189736;28;20054;-31
2021/12/16 12:55:32;;;;;;;6.93;4.53;;;14.00;97.40;;;;;;5189524;28;20127;-31
2021/12/16 12:58:11;;;;;;;9.10;5.57;;;14.00;97.30;;;;;;5206611;28;20069;-31
2021/12/16 13:01:00;;;;;;;11.43;6.23;;;14.00;97.30;;;;;;5189568;28;20041;-31
2021/12/16 13:03:38;;;;;;;5.87;3.30;;;14.00;97.30;;;;;;5206695;28;20046;-32
2021/12/16 13:06:14;;;;;;;4.67;2.53;;;13.90;96.90;;;;;;5189354;28;20080;-32
2021/12/16 13:08:47;;;;;;;8.03;2.67;;;13.90;96.80;;;;;;5189270;28;20048;-34
2021/12/16 13:11:19;;;;;;;;;;;14.00;96.70;;;;;;5189697;28;20049;-34
2021/12/16 13:13:56;;;;;;;8.10;5.40;;;14.00;96.50;;;;;;5206528;28;20366;-34
2021/12/16 13:16:53;;;;;;;9.10;6.57;;;14.00;96.80;;;;;;5189640;28;20514;-31
2021/12/16 13:26:07;;;;;;;23.60;13.27;;;14.10;96.90;;;;;;5191847;28;20053;-31
2021/12/16 13:28:54;;;;;;;8.77;5.60;;;14.10;96.90;;;;;;5206335;28;20099;-32
2021/12/16 13:32:05;;;;;;;8.50;5.47;;;14.10;96.80;;;;;;5206643;28;20046;-32
2021/12/16 13:35:08;;;;;;;7.33;4.00;;;14.00;96.90;;;;;;5123591;29;20085;-32
2021/12/16 13:37:57;;;;;;;12.10;5.13;;;14.00;96.60;;;;;;5123741;29;20051;-32
2021/12/16 13:40:31;;;;;;;12.13;5.47;;;13.90;96.70;;;;;;5107953;29;20051;-33
2021/12/16 13:43:18;;;;;;;11.15;4.43;;;14.00;96.70;;;;;;5107068;28;20063;-31
2021/12/16 13:46:17;;;;;;;19.97;10.23;;;14.00;96.60;;;;;;5127199;29;20096;-30
2021/12/16 14:04:02;;;;;;;14.95;7.43;;;14.20;96.10;;;;;;5126966;29;20067;-31
2021/12/16 14:06:51;;;;;;;13.60;7.03;;;14.20;95.90;;;;;;5126829;29;20456;-32
2021/12/16 14:09:28;;;;;;;13.57;6.83;;;14.30;95.90;;;;;;5126075;29;20059;-31
2021/12/16 14:18:10;;;;;;;11.77;5.60;;;14.20;95.60;;;;;;5187538;28;20061;-31
2021/12/16 14:23:49;;;;;;;11.77;5.03;;;14.20;95.50;;;;;;5210052;28;20049;-32
2021/12/16 14:37:50;;;;;;;55.90;25.90;;;14.30;95.10;;;;;;5209236;28;20524;-33
2021/12/16 14:43:35;;;;;;;15.37;7.90;;;14.30;95.10;;;;;;5125908;29;20099;-31
2021/12/16 14:46:08;;;;;;;9.73;4.93;;;14.30;95.10;;;;;;5126413;29;20051;-31
2021/12/16 14:48:39;;;;;;;21.00;12.07;;;14.30;95.30;;;;;;5126106;29;20436;-33
2021/12/16 14:51:12;;;;;;;20.83;13.97;;;14.30;95.10;;;;;;5125634;29;20560;-30
2021/12/16 14:53:47;;;;;;;22.73;14.00;;;14.30;95.20;;;;;;5125655;29;20541;-31
2021/12/16 14:56:25;;;;;;;24.00;16.80;;;14.40;95.20;;;;;;5125198;28;20070;-33
2021/12/16 14:59:04;;;;;;;18.90;14.40;;;14.40;95.10;;;;;;5125861;29;20123;-31
2021/12/16 15:01:36;;;;;;;56.13;38.27;;;14.50;95.10;;;;;;5110314;29;20063;-32
2021/12/16 15:04:09;;;;;;;88.87;75.23;;;14.50;94.90;;;;;;5125024;29;20051;-32
2021/12/16 15:06:52;;;;;;;105.22;78.45;;;14.60;94.80;;;;;;5108704;29;20465;-31
2021/12/16 15:09:28;;;;;;;52.15;38.70;;;14.60;94.90;;;;;;5125425;29;20418;-32
2021/12/16 15:12:24;;;;;;;17.53;11.23;;;14.60;94.80;;;;;;5125740;29;20216;-31
2021/12/16 15:45:22;;;;;;;17.97;8.37;;;14.60;94.30;;;;;;5193265;28;20049;-30
2021/12/16 15:47:59;;;;;;;30.50;15.00;;;14.70;94.20;;;;;;5207700;28;20540;-31
2021/12/16 15:50:52;;;;;;;20.70;12.30;;;14.70;94.10;;;;;;5207913;28;20120;-32
2021/12/16 15:53:25;;;;;;;22.08;12.13;;;14.70;94.00;;;;;;5192873;28;20575;-33
2021/12/16 15:56:01;;;;;;;43.60;18.80;;;14.60;93.90;;;;;;5173969;28;20096;-31
2021/12/16 15:58:40;;;;;;;16.43;7.13;;;14.60;93.80;;;;;;5207135;28;20033;-33
2021/12/16 16:01:19;;;;;;;30.33;15.17;;;14.70;93.80;;;;;;5190106;28;20068;-30
2021/12/16 16:03:51;;;;;;;28.93;13.87;;;14.70;93.80;;;;;;5189989;28;20094;-31
2021/12/16 16:06:22;;;;;;;17.43;7.63;;;14.60;93.70;;;;;;5173214;28;20053;-32
2021/12/16 16:08:56;;;;;;;18.80;9.30;;;14.60;93.80;;;;;;5173210;28;20054;-30
2021/12/16 16:11:30;;;;;;;18.77;9.10;;;14.60;93.70;;;;;;5206320;28;20087;-30
2021/12/16 16:14:03;;;;;;;23.13;11.50;;;14.60;93.70;;;;;;5207613;28;20038;-30
2021/12/16 16:16:40;;;;;;;;;;;14.60;93.60;;;;;;5190564;28;20049;-31
2021/12/16 16:19:13;;;;;;;28.57;13.00;;;14.50;93.70;;;;;;5207118;28;19925;-33
2021/12/16 16:21:47;;;;;;;28.55;11.15;;;14.50;93.70;;;;;;5189699;28;20560;-32
2021/12/16 16:24:20;;;;;;;37.50;22.97;;;14.50;93.80;;;;;;5189794;28;20052;-30
2021/12/16 16:26:53;;;;;;;51.87;34.07;;;14.50;93.80;;;;;;5207393;28;20048;-31
2021/12/16 16:29:28;;;;;;;121.20;68.68;;;14.50;93.70;;;;;;5207046;28;20124;-33
2021/12/16 16:31:59;;;;;;;43.27;23.83;;;14.50;93.70;;;;;;5189135;28;20049;-32
2021/12/16 16:34:32;;;;;;;45.40;26.00;;;14.40;93.80;;;;;;5207071;28;20053;-30
2021/12/16 16:37:04;;;;;;;121.50;68.15;;;14.40;93.70;;;;;;5206817;28;20056;-31
2021/12/16 16:39:42;;;;;;;111.63;67.30;;;14.40;93.70;;;;;;5206870;28;20041;-32
2021/12/16 16:42:14;;;;;;;39.20;25.50;;;14.40;93.70;;;;;;5206861;28;20057;-32
2021/12/16 16:44:48;;;;;;;21.70;10.83;;;14.40;93.80;;;;;;5187732;28;20050;-31
2021/12/16 16:47:34;;;;;;;23.77;12.57;;;14.30;94.00;;;;;;5185566;28;20069;-33
2021/12/16 16:50:07;;;;;;;30.97;16.60;;;14.30;94.00;;;;;;5185555;28;20121;-30
2021/12/16 16:52:41;;;;;;;16.45;9.82;;;14.30;94.10;;;;;;5185466;28;20054;-30
2021/12/16 16:55:23;;;;;;;24.50;12.57;;;14.30;94.00;;;;;;5185382;28;20057;-32
2021/12/16 16:58:01;;;;;;;16.50;8.83;;;14.20;94.00;;;;;;5184905;28;20074;-31
2021/12/16 17:00:43;;;;;;;16.97;7.07;;;14.20;94.10;;;;;;5183904;28;20056;-30
2021/12/16 17:03:20;;;;;;;14.10;6.13;;;14.10;94.10;;;;;;5182343;28;20100;-32
2021/12/16 17:05:54;;;;;;;20.07;11.03;;;14.00;94.10;;;;;;5180530;28;20050;-31
2021/12/16 17:08:36;;;;;;;17.67;7.53;;;14.00;94.10;;;;;;5182001;28;20060;-33
2021/12/16 17:11:12;;;;;;;17.37;8.43;;;14.00;94.20;;;;;;5173520;28;20164;-31
2021/12/16 17:19:21;;;;;;;21.07;8.73;;;14.00;94.20;;;;;;5184808;28;20049;-30